Time;durP1;ratioP1;P1;durP2;ratioP2;P2;SDS_P1;SDS_P2;PMS_P1;PMS_P2;Temp;Humidity;BMP_temperature;BMP_pressure;BME280_temperature;BME280_humidity;BME280_pressure;Samples;Min_cycle;Max_cycle;Signal;HPM_P1;HPM_P2
2021/11/14 00:00:11;;;;;;;;;;;;;;;6.29;93.05;96788.72;30001;983;1877;-63
2021/11/14 00:00:44;;;;;;;;;;;;;;;6.30;93.41;96784.94;30001;983;1881;-61
2021/11/14 00:01:15;;;;;;;;;;;;;;;6.28;93.41;96789.78;30001;983;1877;-63
2021/11/14 00:01:46;;;;;;;;;;;;;;;6.28;93.10;96785.22;30001;983;1864;-57
2021/11/14 00:02:17;;;;;;;;;;;;;;;6.29;93.20;96794.09;30001;982;1855;-55
2021/11/14 00:02:48;;;;;;;;;;;;;;;6.30;93.37;96795.72;30001;982;1881;-62
2021/11/14 00:03:19;;;;;;;;;;;;;;;6.29;93.13;96794.09;30001;982;1877;-62
2021/11/14 00:03:51;;;;;;;;;;;;;;;6.29;93.46;96784.13;30001;982;1882;-62
2021/11/14 00:04:21;;;;;;;;;;;;;;;6.28;93.47;96787.09;30001;982;1860;-64
2021/11/14 00:04:52;;;;;;;;;;;;;;;6.29;93.40;96788.72;30001;982;1877;-61
2021/11/14 00:05:23;;;;;;;;;;;;;;;6.29;93.34;96788.72;30001;982;1809;-62
2021/11/14 00:05:54;;;;;;;;;;;;;;;6.28;93.27;96792.50;30001;983;1881;-63
2021/11/14 00:06:25;;;;;;;;;;;;;;;6.27;93.34;96790.88;30001;983;1877;-61
2021/11/14 00:06:56;;;;;;;;;;;;;;;6.26;93.59;96790.06;30001;983;1881;-61
2021/11/14 00:07:27;;;;;;;;;;;;;;;6.26;93.22;96791.94;30001;983;1877;-64
2021/11/14 00:07:58;;;;;;;;;;;;;;;6.25;93.57;96787.63;30001;983;1881;-63
2021/11/14 00:08:29;;;;;;;;;;;;;;;6.27;93.72;96790.88;30001;983;1877;-63
2021/11/14 00:09:00;;;;;;;;;;;;;;;6.27;93.28;96790.88;30001;983;1864;-61
2021/11/14 00:09:31;;;;;;;;;;;;;;;6.27;93.59;96788.19;30001;986;1873;-64
2021/11/14 00:10:03;;;;;;;;;;;;;;;6.26;93.37;96790.06;30001;982;1881;-63
2021/11/14 00:10:35;;;;;;;;;;;;;;;6.25;93.76;96793.03;30001;982;1877;-62
2021/11/14 00:11:09;;;;;;;;;;;;;;;6.24;93.70;96791.41;30001;982;1864;-63
2021/11/14 00:11:40;;;;;;;;;;;;;;;6.23;93.49;96789.81;30001;982;1873;-64
2021/11/14 00:12:11;;;;;;;;;;;;;;;6.23;93.49;96790.63;30001;982;1882;-63
2021/11/14 00:12:42;;;;;;;;;;;;;;;6.23;93.30;96789.81;30001;982;1877;-62
2021/11/14 00:13:13;;;;;;;;;;;;;;;6.22;93.65;96789.00;30001;983;1881;-62
2021/11/14 00:13:46;;;;;;;;;;;;;;;6.21;93.70;96792.78;30001;983;1877;-63
2021/11/14 00:14:17;;;;;;;;;;;;;;;6.21;93.57;96795.47;30001;983;1881;-64
2021/11/14 00:14:47;;;;;;;;;;;;;;;6.20;93.66;96790.34;30001;983;1877;-63
2021/11/14 00:15:18;;;;;;;;;;;;;;;6.20;93.90;96790.34;30001;983;1881;-62
2021/11/14 00:15:50;;;;;;;;;;;;;;;6.19;93.69;96788.72;30001;983;1877;-63
2021/11/14 00:16:21;;;;;;;;;;;;;;;6.19;93.58;96794.13;30001;983;1864;-63
2021/11/14 00:16:53;;;;;;;;;;;;;;;6.18;94.00;96793.31;30001;983;1873;-56
2021/11/14 00:17:24;;;;;;;;;;;;;;;6.18;93.75;96792.50;30001;982;1864;-63
2021/11/14 00:17:54;;;;;;;;;;;;;;;6.17;93.76;96788.19;30001;982;1873;-62
2021/11/14 00:18:25;;;;;;;;;;;;;;;6.16;94.06;96800.03;30001;982;1882;-63
2021/11/14 00:18:57;;;;;;;;;;;;;;;6.15;93.81;96793.84;30001;982;1877;-64
2021/11/14 00:19:28;;;;;;;;;;;;;;;6.16;94.17;96794.66;30001;982;1882;-55
2021/11/14 00:19:59;;;;;;;;;;;;;;;6.15;93.78;96793.03;30001;983;1876;-65
2021/11/14 00:20:30;;;;;;;;;;;;;;;6.15;94.10;96790.34;30001;983;1881;-63
2021/11/14 00:21:01;;;;;;;;;;;;;;;6.14;93.95;96791.41;30001;983;1877;-64
2021/11/14 00:21:35;;;;;;;;;;;;;;;6.14;94.03;96796.78;30001;983;1881;-64
2021/11/14 00:22:06;;;;;;;;;;;;;;;6.15;94.11;96793.03;30001;983;1876;-65
2021/11/14 00:22:37;;;;;;;;;;;;;;;6.14;93.92;96796.78;30001;983;1864;-64
2021/11/14 00:23:09;;;;;;;;;;;;;;;6.14;94.12;96788.72;30001;983;1855;-64
2021/11/14 00:23:39;;;;;;;;;;;;;;;6.13;94.16;96792.47;30001;983;1881;-63
2021/11/14 00:24:12;;;;;;;;;;;;;;;6.12;94.06;96793.56;30001;983;1877;-65
2021/11/14 00:24:42;;;;;;;;;;;;;;;6.13;94.11;96796.00;30001;983;1881;-63
2021/11/14 00:25:14;;;;;;;;;;;;;;;6.15;93.99;96787.63;30001;982;1877;-63
2021/11/14 00:25:46;;;;;;;;;;;;;;;6.15;94.31;96795.72;30001;982;1881;-65
2021/11/14 00:26:16;;;;;;;;;;;;;;;6.15;94.02;96793.03;30001;982;1860;-65
2021/11/14 00:26:47;;;;;;;;;;;;;;;6.16;94.26;96794.66;30001;982;1877;-65
2021/11/14 00:27:18;;;;;;;;;;;;;;;6.17;94.17;96789.00;30001;983;1876;-64
2021/11/14 00:27:49;;;;;;;;;;;;;;;6.17;93.76;96791.69;30001;983;1881;-65
2021/11/14 00:28:20;;;;;;;;;;;;;;;6.17;93.85;96786.28;30001;983;1877;-64
2021/11/14 00:28:51;;;;;;;;;;;;;;;6.16;93.95;96790.06;30001;983;1881;-62
2021/11/14 00:29:22;;;;;;;;;;;;;;;6.17;93.85;96790.88;30002;983;1877;-65
2021/11/14 00:29:53;;;;;;;;;;;;;;;6.16;94.08;96794.66;30002;983;1881;-63
2021/11/14 00:30:24;;;;;;;;;;;;;;;6.15;93.81;96793.03;30002;983;1877;-65
2021/11/14 00:30:55;;;;;;;;;;;;;;;6.14;93.71;96792.22;30002;983;1864;-65
2021/11/14 00:31:26;;;;;;;;;;;;;;;6.13;94.12;96789.78;30002;983;1873;-65
2021/11/14 00:31:57;;;;;;;;;;;;;;;6.13;93.77;96789.78;30002;983;1881;-64
2021/11/14 00:32:28;;;;;;;;;;;;;;;6.11;93.85;96791.94;30002;982;1877;-64
2021/11/14 00:32:58;;;;;;;;;;;;;;;6.10;94.09;96795.72;30002;982;1881;-64
2021/11/14 00:33:30;;;;;;;;;;;;;;;6.12;94.04;96788.16;30002;982;1877;-65
2021/11/14 00:34:04;;;;;;;;;;;;;;;6.14;94.25;96791.41;30002;982;1882;-65
2021/11/14 00:34:36;;;;;;;;;;;;;;;6.15;94.22;96787.63;30002;982;1877;-66
2021/11/14 00:35:08;;;;;;;;;;;;;;;6.15;94.14;96793.03;30002;983;1881;-63
2021/11/14 00:35:40;;;;;;;;;;;;;;;6.16;93.97;96789.25;30002;983;1876;-65
2021/11/14 00:36:11;;;;;;;;;;;;;;;6.17;94.03;96796.25;30002;983;1863;-56
2021/11/14 00:36:43;;;;;;;;;;;;;;;6.17;94.05;96793.56;30002;983;1855;-63
2021/11/14 00:37:14;;;;;;;;;;;;;;;6.16;94.12;96790.06;30002;983;1881;-63
2021/11/14 00:37:44;;;;;;;;;;;;;;;6.16;93.83;96794.66;30002;983;1877;-63
2021/11/14 00:38:15;;;;;;;;;;;;;;;6.15;94.19;96793.03;30002;983;1881;-56
2021/11/14 00:38:46;;;;;;;;;;;;;;;6.15;93.82;96793.03;30002;983;1877;-56
2021/11/14 00:39:17;;;;;;;;;;;;;;;6.15;94.01;96798.41;30002;982;1881;-66
2021/11/14 00:39:48;;;;;;;;;;;;;;;6.12;93.97;96794.38;30002;982;1877;-65
2021/11/14 00:40:22;;;;;;;;;;;;;;;6.12;94.01;96788.97;30002;982;1881;-64
2021/11/14 00:40:52;;;;;;;;;;;;;;;6.12;94.06;96785.47;30002;982;1877;-63
2021/11/14 00:41:24;;;;;;;;;;;;;;;6.11;94.00;96786.56;30002;982;1864;-65
2021/11/14 00:41:55;;;;;;;;;;;;;;;6.12;94.09;96798.94;30002;982;1873;-65
2021/11/14 00:42:26;;;;;;;;;;;;;;;6.11;94.00;96789.25;30002;983;1881;-64
2021/11/14 00:42:58;;;;;;;;;;;;;;;6.09;94.38;96794.91;30002;983;1876;-66
2021/11/14 00:43:28;;;;;;;;;;;;;;;6.10;94.10;96793.00;30002;983;1881;-64
2021/11/14 00:43:59;;;;;;;;;;;;;;;6.09;94.26;96794.09;30002;983;1859;-64
2021/11/14 00:44:30;;;;;;;;;;;;;;;6.09;94.11;96794.09;30002;983;1859;-66
2021/11/14 00:45:01;;;;;;;;;;;;;;;6.07;94.20;96790.84;30002;983;1877;-65
2021/11/14 00:45:34;;;;;;;;;;;;;;;6.06;94.28;96800.81;30002;983;1881;-64
2021/11/14 00:46:10;;;;;;;;;;;;;;;6.04;94.49;96790.31;30002;983;1877;-64
2021/11/14 00:46:42;;;;;;;;;;;;;;;6.03;94.38;96791.38;30002;982;1864;-65
2021/11/14 00:47:12;;;;;;;;;;;;;;;6.02;94.63;96794.34;30002;982;1872;-56
2021/11/14 00:47:43;;;;;;;;;;;;;;;6.02;94.75;96795.16;30002;982;1882;-55
2021/11/14 00:48:18;;;;;;;;;;;;;;;6.02;94.38;96791.66;30002;982;1877;-64
2021/11/14 00:48:48;;;;;;;;;;;;;;;6.01;94.64;96798.91;30002;982;1882;-65
2021/11/14 00:49:19;;;;;;;;;;;;;;;6.01;94.75;96787.34;30002;982;1860;-66
2021/11/14 00:49:50;;;;;;;;;;;;;;;6.00;94.77;96802.69;30002;982;1877;-64
2021/11/14 00:50:22;;;;;;;;;;;;;;;6.00;94.57;96797.28;30002;983;1877;-66
2021/11/14 00:50:53;;;;;;;;;;;;;;;6.00;94.54;96791.91;30002;983;1881;-65
2021/11/14 00:51:28;;;;;;;;;;;;;;;5.99;94.56;96784.91;30002;983;1877;-66
2021/11/14 00:51:59;;;;;;;;;;;;;;;5.99;94.92;96794.88;30002;986;1881;-64
2021/11/14 00:52:30;;;;;;;;;;;;;;;5.98;94.78;96794.06;30002;983;1877;-66
2021/11/14 00:53:01;;;;;;;;;;;;;;;5.98;95.12;96794.06;30002;983;1881;-65
2021/11/14 00:53:32;;;;;;;;;;;;;;;5.96;95.10;96790.81;30002;983;1877;-57
2021/11/14 00:54:06;;;;;;;;;;;;;;;5.97;95.10;96789.75;30002;983;1881;-65
2021/11/14 00:54:37;;;;;;;;;;;;;;;5.98;95.07;96787.84;30002;982;1859;-65
2021/11/14 00:55:10;;;;;;;;;;;;;;;5.96;95.21;96787.31;30002;982;1877;-66
2021/11/14 00:55:41;;;;;;;;;;;;;;;5.97;95.15;96794.31;30002;982;1877;-66
2021/11/14 00:56:12;;;;;;;;;;;;;;;5.96;95.24;96798.91;30002;982;1882;-65
2021/11/14 00:56:43;;;;;;;;;;;;;;;5.96;95.28;96795.41;30002;982;1877;-65
2021/11/14 00:57:14;;;;;;;;;;;;;;;5.95;95.29;96789.19;30002;982;1881;-55
2021/11/14 00:57:45;;;;;;;;;;;;;;;5.95;95.04;96793.78;30002;983;1876;-65
2021/11/14 00:58:16;;;;;;;;;;;;;;;5.95;95.21;96797.28;30002;983;1881;-67
2021/11/14 00:58:47;;;;;;;;;;;;;;;5.94;95.27;96795.66;30002;983;1877;-66
2021/11/14 00:59:18;;;;;;;;;;;;;;;5.93;95.61;96796.72;30002;983;1881;-67
2021/11/14 00:59:48;;;;;;;;;;;;;;;5.92;95.63;96795.13;30002;983;1859;-66
2021/11/14 01:00:22;;;;;;;;;;;;;;;5.92;95.65;96795.13;30002;983;1877;-64
2021/11/14 01:00:54;;;;;;;;;;;;;;;5.92;95.37;96797.81;30002;983;1877;-66
2021/11/14 01:01:25;;;;;;;;;;;;;;;5.91;95.62;96793.50;30002;983;1881;-67
2021/11/14 01:01:55;;;;;;;;;;;;;;;5.91;95.67;96796.19;30002;982;1877;-66
2021/11/14 01:02:26;;;;;;;;;;;;;;;5.92;95.64;96795.13;30002;982;1881;-68
2021/11/14 01:02:58;;;;;;;;;;;;;;;5.92;95.63;96789.72;30002;982;1877;-67
2021/11/14 01:03:29;;;;;;;;;;;;;;;5.93;95.76;96796.72;30002;982;1882;-66
2021/11/14 01:04:01;;;;;;;;;;;;;;;5.93;95.38;96795.91;30002;982;1877;-65
2021/11/14 01:04:34;;;;;;;;;;;;;;;5.92;95.64;96797.81;30002;982;1882;-66
2021/11/14 01:05:06;;;;;;;;;;;;;;;5.93;95.75;96795.91;30002;983;1859;-66
2021/11/14 01:05:41;;;;;;;;;;;;;;;5.92;95.66;96805.88;30002;983;1876;-66
2021/11/14 01:06:12;;;;;;;;;;;;;;;5.93;95.58;96795.91;30002;983;1877;-65
2021/11/14 01:06:42;;;;;;;;;;;;;;;5.92;95.60;96799.69;30002;983;1881;-65
2021/11/14 01:07:13;;;;;;;;;;;;;;;5.91;95.58;96806.97;30002;983;1877;-66
2021/11/14 01:07:44;;;;;;;;;;;;;;;5.92;95.68;96805.88;30002;983;1881;-55
2021/11/14 01:08:15;;;;;;;;;;;;;;;5.92;95.69;96805.06;30002;983;1877;-65
2021/11/14 01:08:46;;;;;;;;;;;;;;;5.93;95.66;96796.72;30002;983;1881;-67
2021/11/14 01:09:17;;;;;;;;;;;;;;;5.94;95.40;96802.94;30002;982;1877;-66
2021/11/14 01:09:48;;;;;;;;;;;;;;;5.95;95.68;96804.53;30002;982;1881;-64
2021/11/14 01:10:22;;;;;;;;;;;;;;;5.97;95.65;96802.41;30002;982;1859;-67
2021/11/14 01:10:52;;;;;;;;;;;;;;;5.97;95.27;96797.81;30002;982;1877;-66
2021/11/14 01:11:24;;;;;;;;;;;;;;;5.98;95.33;96801.31;30002;982;1877;-64
2021/11/14 01:11:54;;;;;;;;;;;;;;;5.98;95.46;96804.03;30002;983;1881;-66
2021/11/14 01:12:26;;;;;;;;;;;;;;;5.96;95.18;96801.59;30002;983;1876;-65
2021/11/14 01:12:58;;;;;;;;;;;;;;;5.98;95.23;96801.31;30002;983;1881;-66
2021/11/14 01:13:29;;;;;;;;;;;;;;;5.99;95.13;96802.94;30002;983;1877;-65
2021/11/14 01:14:00;;;;;;;;;;;;;;;5.97;95.27;96803.22;30002;983;1881;-65
2021/11/14 01:14:31;;;;;;;;;;;;;;;5.98;95.13;96810.22;30002;983;1877;-65
2021/11/14 01:15:04;;;;;;;;;;;;;;;5.98;95.49;96804.81;30002;983;1881;-67
2021/11/14 01:15:36;;;;;;;;;;;;;;;5.98;95.43;96810.22;30002;983;1859;-69
2021/11/14 01:16:08;;;;;;;;;;;;;;;6.00;95.28;96807.25;30002;983;1877;-65
2021/11/14 01:16:39;;;;;;;;;;;;;;;6.01;95.18;96798.09;30002;983;1877;-64
2021/11/14 01:17:10;;;;;;;;;;;;;;;6.04;95.35;96802.97;30002;982;1881;-66
2021/11/14 01:17:42;;;;;;;;;;;;;;;6.04;95.14;96803.78;30002;982;1877;-67
2021/11/14 01:18:14;;;;;;;;;;;;;;;6.05;95.02;96804.59;30002;982;1882;-66
2021/11/14 01:18:45;;;;;;;;;;;;;;;6.08;94.94;96804.06;30002;982;1877;-66
2021/11/14 01:19:16;;;;;;;;;;;;;;;6.09;95.02;96805.66;30002;982;1882;-66
2021/11/14 01:19:46;;;;;;;;;;;;;;;6.10;94.75;96807.28;30002;983;1876;-65
2021/11/14 01:20:23;;;;;;;;;;;;;;;6.10;94.85;96812.69;30001;983;1881;-65
2021/11/14 01:20:56;;;;;;;;;;;;;;;6.09;94.88;96811.06;30002;983;1859;-66
2021/11/14 01:21:28;;;;;;;;;;;;;;;6.08;94.69;96814.00;30001;983;1877;-68
2021/11/14 01:21:59;;;;;;;;;;;;;;;6.08;94.44;96808.63;30001;983;1877;-65
2021/11/14 01:22:30;;;;;;;;;;;;;;;6.08;94.74;96814.00;30001;983;1881;-66
2021/11/14 01:23:03;;;;;;;;;;;;;;;6.05;94.61;96805.41;30001;983;1877;-65
2021/11/14 01:23:34;;;;;;;;;;;;;;;6.07;94.65;96812.41;30001;983;1881;-65
2021/11/14 01:24:05;;;;;;;;;;;;;;;6.07;94.51;96804.31;30001;983;1877;-66
2021/11/14 01:24:36;;;;;;;;;;;;;;;6.07;94.47;96807.00;30001;982;1881;-67
2021/11/14 01:25:08;;;;;;;;;;;;;;;6.07;94.52;96813.22;30001;982;1877;-65
2021/11/14 01:25:40;;;;;;;;;;;;;;;6.07;94.50;96812.41;30001;982;1881;-56
2021/11/14 01:26:10;;;;;;;;;;;;;;;6.05;94.46;96813.47;30001;981;1860;-68
2021/11/14 01:26:41;;;;;;;;;;;;;;;6.04;94.47;96817.25;30001;982;1877;-68
2021/11/14 01:27:14;;;;;;;;;;;;;;;6.03;94.31;96815.63;30001;983;1876;-66
2021/11/14 01:27:46;;;;;;;;;;;;;;;6.03;94.39;96812.12;30001;983;1881;-66
2021/11/14 01:28:18;;;;;;;;;;;;;;;6.03;94.63;96809.44;30001;986;1868;-68
2021/11/14 01:28:49;;;;;;;;;;;;;;;6.03;94.53;96807.53;30001;983;1881;-67
2021/11/14 01:29:20;;;;;;;;;;;;;;;6.07;94.60;96817.78;30001;983;1877;-64
2021/11/14 01:29:50;;;;;;;;;;;;;;;6.06;94.40;96816.97;30001;983;1881;-67
2021/11/14 01:30:24;;;;;;;;;;;;;;;6.04;94.59;96814.53;30001;983;1859;-66
2021/11/14 01:30:57;;;;;;;;;;;;;;;6.01;94.66;96807.00;30001;983;1877;-66
2021/11/14 01:31:28;;;;;;;;;;;;;;;6.00;94.39;96810.75;30001;983;1877;-67
2021/11/14 01:31:59;;;;;;;;;;;;;;;5.98;94.71;96810.22;30001;982;1881;-66
2021/11/14 01:32:30;;;;;;;;;;;;;;;5.97;94.61;96813.97;30001;982;1877;-67
2021/11/14 01:33:03;;;;;;;;;;;;;;;5.98;94.77;96821.00;30001;982;1881;-65
2021/11/14 01:33:35;;;;;;;;;;;;;;;5.97;94.67;96813.97;30001;982;1877;-67
2021/11/14 01:34:06;;;;;;;;;;;;;;;5.97;94.83;96813.97;30001;982;1864;-65
2021/11/14 01:34:37;;;;;;;;;;;;;;;5.95;94.87;96812.63;30001;983;1872;-67
2021/11/14 01:35:09;;;;;;;;;;;;;;;5.93;94.93;96815.59;30001;983;1881;-65
2021/11/14 01:35:41;;;;;;;;;;;;;;;5.92;95.07;96805.88;30001;983;1876;-68
2021/11/14 01:36:12;;;;;;;;;;;;;;;5.91;95.24;96817.72;30001;983;1881;-67
2021/11/14 01:36:52;;;;;;;;;;;;;;;5.92;95.42;96816.66;30001;983;1859;-68
2021/11/14 01:37:24;;;;;;;;;;;;;;;5.91;95.46;96815.03;30001;983;1877;-65
2021/11/14 01:37:55;;;;;;;;;;;;;;;5.90;95.34;96816.09;30001;983;1877;-66
2021/11/14 01:38:27;;;;;;;;;;;;;;;5.91;95.39;96812.34;30001;983;1881;-67
2021/11/14 01:38:59;;;;;;;;;;;;;;;5.92;95.08;96818.53;30001;983;1877;-66
2021/11/14 01:39:31;;;;;;;;;;;;;;;5.90;95.37;96816.09;30001;982;1881;-65
2021/11/14 01:40:04;;;;;;;;;;;;;;;5.89;95.41;96817.19;30001;982;1877;-67
2021/11/14 01:40:37;;;;;;;;;;;;;;;5.90;95.57;96818.00;30001;982;1882;-66
2021/11/14 01:41:10;;;;;;;;;;;;;;;5.89;95.27;96824.47;30001;982;1877;-67
2021/11/14 01:41:42;;;;;;;;;;;;;;;5.88;95.53;96820.94;30001;982;1882;-67
2021/11/14 01:42:13;;;;;;;;;;;;;;;5.88;95.63;96823.63;30001;983;1859;-67
2021/11/14 01:42:44;;;;;;;;;;;;;;;5.87;95.38;96822.03;30001;983;1876;-67
2021/11/14 01:43:17;;;;;;;;;;;;;;;5.88;95.41;96820.94;30001;983;1877;-67
2021/11/14 01:43:49;;;;;;;;;;;;;;;5.88;95.65;96815.56;30001;983;1881;-67
2021/11/14 01:44:20;;;;;;;;;;;;;;;5.89;95.41;96821.78;30001;983;1877;-67
2021/11/14 01:44:51;;;;;;;;;;;;;;;5.89;95.55;96829.87;30001;983;1863;-67
2021/11/14 01:45:23;;;;;;;;;;;;;;;5.88;95.39;96825.53;30001;983;1873;-67
2021/11/14 01:45:54;;;;;;;;;;;;;;;5.88;95.39;96823.63;30001;983;1881;-65
2021/11/14 01:46:25;;;;;;;;;;;;;;;5.88;95.65;96820.13;30001;982;1877;-66
2021/11/14 01:46:56;;;;;;;;;;;;;;;5.87;95.85;96824.72;30001;982;1881;-65
2021/11/14 01:47:27;;;;;;;;;;;;;;;5.87;95.72;96824.72;30001;982;1877;-66
2021/11/14 01:47:58;;;;;;;;;;;;;;;5.87;95.68;96824.72;30001;982;1882;-67
2021/11/14 01:48:29;;;;;;;;;;;;;;;5.87;95.86;96832.78;30001;982;1864;-66
2021/11/14 01:49:00;;;;;;;;;;;;;;;5.87;95.91;96830.09;30001;982;1882;-66
2021/11/14 01:49:30;;;;;;;;;;;;;;;5.86;95.47;96823.09;30001;983;1881;-68
2021/11/14 01:50:03;;;;;;;;;;;;;;;5.87;95.51;96827.41;30001;983;1868;-65
2021/11/14 01:50:34;;;;;;;;;;;;;;;5.87;95.57;96827.41;30001;983;1877;-65
2021/11/14 01:51:06;;;;;;;;;;;;;;;5.87;95.73;96818.53;30001;983;1885;-66
2021/11/14 01:51:37;;;;;;;;;;;;;;;5.86;95.84;96828.47;30001;983;1863;-67
2021/11/14 01:52:21;;;;;;;;;;;;;;;5.87;95.78;96823.91;30001;983;1881;-66
2021/11/14 01:52:53;;;;;;;;;;;;;;;5.85;95.72;96816.09;30001;983;1881;-65
2021/11/14 01:53:25;;;;;;;;;;;;;;;5.86;95.76;96815.00;30001;983;1886;-68
2021/11/14 01:53:56;;;;;;;;;;;;;;;5.87;95.75;96824.72;30001;982;1881;-65
2021/11/14 01:54:29;;;;;;;;;;;;;;;5.88;95.75;96826.34;30001;982;1886;-65
2021/11/14 01:55:00;;;;;;;;;;;;;;;5.88;95.63;96820.94;30001;982;1882;-65
2021/11/14 01:55:33;;;;;;;;;;;;;;;5.88;95.60;96818.25;30001;982;1886;-66
2021/11/14 01:56:05;;;;;;;;;;;;;;;5.89;95.90;96813.72;30001;982;1864;-65
2021/11/14 01:56:37;;;;;;;;;;;;;;;5.89;95.72;96816.41;30001;982;1882;-66
2021/11/14 01:57:08;;;;;;;;;;;;;;;5.89;95.80;96822.56;30001;983;1881;-54
2021/11/14 01:57:38;;;;;;;;;;;;;;;5.89;95.83;96822.56;30001;983;1885;-66
2021/11/14 01:58:12;;;;;;;;;;;;;;;5.89;95.98;96821.78;30001;983;1881;-66
2021/11/14 01:58:43;;;;;;;;;;;;;;;5.88;95.92;96820.94;30001;983;1868;-67
2021/11/14 01:59:14;;;;;;;;;;;;;;;5.88;95.74;96820.94;30001;983;1877;-66
2021/11/14 01:59:45;;;;;;;;;;;;;;;5.89;95.90;96822.56;30001;983;1886;-64
2021/11/14 02:00:35;;;;;;;;;;;;;;;5.87;95.74;96819.31;30001;983;1881;-66
2021/11/14 02:01:10;;;;;;;;;;;;;;;5.88;95.93;96820.94;30001;983;1886;-67
2021/11/14 02:01:41;;;;;;;;;;;;;;;5.87;95.78;96824.72;30001;982;1881;-66
2021/11/14 02:02:13;;;;;;;;;;;;;;;5.87;95.92;96816.63;30001;982;1868;-67
2021/11/14 02:02:44;;;;;;;;;;;;;;;5.88;95.99;96820.94;30001;982;1877;-65
2021/11/14 02:03:15;;;;;;;;;;;;;;;5.88;96.05;96822.84;30001;982;1886;-66
2021/11/14 02:03:50;;;;;;;;;;;;;;;5.86;95.73;96815.00;30001;982;1882;-68
2021/11/14 02:04:21;;;;;;;;;;;;;;;5.87;95.82;96819.31;30001;982;1886;-65
2021/11/14 02:04:52;;;;;;;;;;;;;;;5.87;95.92;96824.72;30001;983;1881;-67
2021/11/14 02:05:23;;;;;;;;;;;;;;;5.86;96.01;96817.72;30001;983;1885;-68
2021/11/14 02:05:54;;;;;;;;;;;;;;;5.87;95.84;96810.44;30001;983;1881;-66
2021/11/14 02:06:26;;;;;;;;;;;;;;;5.86;95.97;96817.72;30001;983;1885;-67
2021/11/14 02:06:56;;;;;;;;;;;;;;;5.86;96.08;96814.22;30001;983;1863;-65
2021/11/14 02:07:30;;;;;;;;;;;;;;;5.86;95.87;96820.41;30001;983;1881;-66
2021/11/14 02:08:03;;;;;;;;;;;;;;;5.85;95.87;96816.09;30001;983;1881;-67
2021/11/14 02:08:36;;;;;;;;;;;;;;;5.86;95.96;96812.31;30001;983;1886;-67
2021/11/14 02:09:07;;;;;;;;;;;;;;;5.85;96.04;96818.78;30001;982;1881;-67
2021/11/14 02:09:38;;;;;;;;;;;;;;;5.84;96.16;96817.16;30001;982;1886;-66
2021/11/14 02:10:09;;;;;;;;;;;;;;;5.83;96.07;96812.84;30001;982;1882;-65
2021/11/14 02:10:42;;;;;;;;;;;;;;;5.84;96.21;96809.09;30001;982;1886;-67
2021/11/14 02:11:15;;;;;;;;;;;;;;;5.83;96.02;96818.22;30001;982;1882;-66
2021/11/14 02:11:46;;;;;;;;;;;;;;;5.83;96.16;96823.63;30001;982;1886;-66
2021/11/14 02:12:18;;;;;;;;;;;;;;;5.83;96.20;96820.13;30001;983;1863;-66
2021/11/14 02:12:49;;;;;;;;;;;;;;;5.82;96.36;96811.22;30001;983;1881;-66
2021/11/14 02:13:20;;;;;;;;;;;;;;;5.82;96.19;96813.13;30001;983;1881;-55
2021/11/14 02:13:51;;;;;;;;;;;;;;;5.83;96.17;96818.22;30001;983;1885;-65
2021/11/14 02:14:23;;;;;;;;;;;;;;;5.83;96.08;96815.53;30001;983;1863;-67
2021/11/14 02:14:54;;;;;;;;;;;;;;;5.82;96.45;96811.22;30001;983;1881;-66
2021/11/14 02:15:26;;;;;;;;;;;;;;;5.81;96.38;96815.00;30001;983;1881;-65
2021/11/14 02:15:57;;;;;;;;;;;;;;;5.82;96.45;96816.63;30001;983;1886;-66
2021/11/14 02:16:29;;;;;;;;;;;;;;;5.82;96.26;96816.63;30001;982;1881;-66
2021/11/14 02:17:00;;;;;;;;;;;;;;;5.83;96.44;96812.03;30001;982;1886;-66
2021/11/14 02:17:31;;;;;;;;;;;;;;;5.83;96.56;96812.03;30001;982;1882;-66
2021/11/14 02:18:03;;;;;;;;;;;;;;;5.82;96.48;96811.22;30001;982;1886;-55
2021/11/14 02:18:33;;;;;;;;;;;;;;;5.82;96.36;96813.91;30001;982;1882;-66
2021/11/14 02:19:06;;;;;;;;;;;;;;;5.83;96.36;96812.84;30001;983;1858;-66
2021/11/14 02:19:40;;;;;;;;;;;;;;;5.82;96.23;96811.22;30001;983;1863;-65
2021/11/14 02:20:12;;;;;;;;;;;;;;;5.83;96.46;96806.66;30001;983;1881;-65
2021/11/14 02:20:44;;;;;;;;;;;;;;;5.83;96.25;96815.53;30001;983;1881;-67
2021/11/14 02:21:15;;;;;;;;;;;;;;;5.83;96.33;96810.16;30001;983;1885;-55
2021/11/14 02:21:46;;;;;;;;;;;;;;;5.83;96.31;96810.16;30001;983;1788;-65
2021/11/14 02:22:17;;;;;;;;;;;;;;;5.83;96.59;96810.16;30001;983;1886;-65
2021/11/14 02:22:49;;;;;;;;;;;;;;;5.84;96.61;96802.88;30001;983;1864;-66
2021/11/14 02:23:22;;;;;;;;;;;;;;;5.83;96.37;96812.84;30001;983;1881;-66
2021/11/14 02:23:53;;;;;;;;;;;;;;;5.82;96.46;96800.47;30001;982;1881;-66
2021/11/14 02:24:24;;;;;;;;;;;;;;;5.82;96.63;96805.84;30001;982;1886;-66
2021/11/14 02:24:55;;;;;;;;;;;;;;;5.82;96.48;96813.13;30001;982;1882;-55
2021/11/14 02:25:26;;;;;;;;;;;;;;;5.82;96.81;96810.41;30001;982;1886;-66
2021/11/14 02:25:57;;;;;;;;;;;;;;;5.82;96.36;96810.41;30001;982;1882;-66
2021/11/14 02:26:28;;;;;;;;;;;;;;;5.82;96.54;96811.22;30001;983;1885;-67
2021/11/14 02:26:59;;;;;;;;;;;;;;;5.82;96.47;96811.22;30001;983;1881;-66
2021/11/14 02:27:30;;;;;;;;;;;;;;;5.82;96.51;96807.72;30001;971;1880;-66
2021/11/14 02:28:01;;;;;;;;;;;;;;;5.82;96.82;96811.22;30001;983;1876;-66
2021/11/14 02:28:33;;;;;;;;;;;;;;;5.82;96.82;96805.84;30001;983;1885;-65
2021/11/14 02:29:04;;;;;;;;;;;;;;;5.82;96.69;96813.13;30001;983;1881;-65
2021/11/14 02:29:35;;;;;;;;;;;;;;;5.82;96.84;96813.91;30001;983;1885;-66
2021/11/14 02:30:07;;;;;;;;;;;;;;;5.82;96.53;96813.13;30001;957;1907;-66
2021/11/14 02:30:39;;;;;;;;;;;;;;;5.83;96.75;96812.84;30001;983;1886;-68
2021/11/14 02:31:11;;;;;;;;;;;;;;;5.83;96.99;96818.22;30001;983;1864;-67
2021/11/14 02:31:42;;;;;;;;;;;;;;;5.83;96.83;96812.84;30001;982;1881;-66
2021/11/14 02:32:13;;;;;;;;;;;;;;;5.83;97.18;96802.06;30001;982;1864;-65
2021/11/14 02:32:44;;;;;;;;;;;;;;;5.83;97.19;96817.41;30001;982;1881;-66
2021/11/14 02:33:16;;;;;;;;;;;;;;;5.84;97.25;96814.47;30001;982;1864;-68
2021/11/14 02:33:47;;;;;;;;;;;;;;;5.83;97.21;96812.84;30001;982;1882;-67
2021/11/14 02:34:17;;;;;;;;;;;;;;;5.85;97.31;96802.63;30001;983;1881;-66
2021/11/14 02:34:48;;;;;;;;;;;;;;;5.85;97.24;96810.69;30001;983;1824;-66
2021/11/14 02:35:19;;;;;;;;;;;;;;;5.86;97.17;96812.31;30001;983;1881;-66
2021/11/14 02:35:51;;;;;;;;;;;;;;;5.86;97.54;96814.22;30001;983;1885;-67
2021/11/14 02:36:23;;;;;;;;;;;;;;;5.85;97.49;96799.94;30001;983;1881;-68
2021/11/14 02:36:54;;;;;;;;;;;;;;;5.86;97.49;96812.31;30001;983;1885;-66
2021/11/14 02:37:24;;;;;;;;;;;;;;;5.86;97.48;96806.94;30001;983;1812;-67
2021/11/14 02:37:55;;;;;;;;;;;;;;;5.88;97.58;96814.75;30001;983;1886;-66
2021/11/14 02:38:28;;;;;;;;;;;;;;;5.88;97.63;96807.47;30001;983;1864;-67
2021/11/14 02:38:59;;;;;;;;;;;;;;;5.88;97.71;96810.19;30001;982;1881;-67
2021/11/14 02:39:30;;;;;;;;;;;;;;;5.89;97.40;96805.63;30001;982;1881;-55
2021/11/14 02:40:01;;;;;;;;;;;;;;;5.88;97.47;96810.19;30001;982;1886;-66
2021/11/14 02:40:32;;;;;;;;;;;;;;;5.88;97.45;96812.88;30001;982;1882;-67
2021/11/14 02:41:03;;;;;;;;;;;;;;;5.89;97.77;96817.19;30001;982;1886;-66
2021/11/14 02:41:34;;;;;;;;;;;;;;;5.88;97.49;96804.78;30001;983;1881;-68
2021/11/14 02:42:06;;;;;;;;;;;;;;;5.87;97.45;96808.56;30001;983;1885;-67
2021/11/14 02:42:36;;;;;;;;;;;;;;;5.87;97.34;96819.31;30001;983;1881;-68
2021/11/14 02:43:08;;;;;;;;;;;;;;;5.88;97.54;96818.25;30001;983;1885;-65
2021/11/14 02:43:43;;;;;;;;;;;;;;;5.87;97.27;96813.94;30001;983;1863;-68
2021/11/14 02:44:14;;;;;;;;;;;;;;;5.88;97.52;96823.63;30001;983;1864;-65
2021/11/14 02:44:45;;;;;;;;;;;;;;;5.88;97.18;96826.34;30001;983;1881;-65
2021/11/14 02:45:18;;;;;;;;;;;;;;;5.88;97.19;96820.94;30001;983;1886;-67
2021/11/14 02:45:49;;;;;;;;;;;;;;;5.88;97.00;96820.94;30001;983;1881;-66
2021/11/14 02:46:20;;;;;;;;;;;;;;;5.88;97.29;96818.25;30001;983;1886;-67
2021/11/14 02:46:51;;;;;;;;;;;;;;;5.89;96.92;96822.56;30001;982;1881;-65
2021/11/14 02:47:22;;;;;;;;;;;;;;;5.89;97.14;96822.56;30001;982;1886;-66
2021/11/14 02:47:55;;;;;;;;;;;;;;;5.89;96.83;96813.72;30001;982;1882;-66
2021/11/14 02:48:26;;;;;;;;;;;;;;;5.89;96.91;96819.09;30001;982;1886;-65
2021/11/14 02:48:57;;;;;;;;;;;;;;;5.88;96.76;96820.94;30001;982;1864;-64
2021/11/14 02:49:28;;;;;;;;;;;;;;;5.87;96.60;96816.63;30001;983;1881;-67
2021/11/14 02:49:59;;;;;;;;;;;;;;;5.87;96.54;96819.31;30001;983;1881;-66
2021/11/14 02:50:30;;;;;;;;;;;;;;;5.88;96.79;96810.19;30001;983;1885;-67
2021/11/14 02:51:02;;;;;;;;;;;;;;;5.88;96.71;96820.94;30001;964;1882;-66